Maryland METAR Reports


Distance/Direction noted is from Ellicott City, MD as the crow flies

KCBE - Cumberland - 118 miles WNW
Updated: Sun, 04/20/2014 9:46 PM
Clear
Clear
 Wind from SSW
Wind: SSW 3 mph
Temperature: 55°F
Dew Point: 30°F
Humidity: 38%
Barometer: 30.32 inHg
Clouds: Clear
Visibility: 10 miles
2014/04/21 01:46 KCBE 210146Z AUTO 20003KT 10SM CLR 13/M01 A3032 RMK AO1
KHGR - Hagerstown - 57 miles NW
Updated: Sun, 04/20/2014 9:53 PM
Clear
Clear
 Wind from SE
Wind: SE 8 mph
Temperature: 54°F
Dew Point: 32°F
Humidity: 44%
Barometer: 30.30 inHg
Clouds: Clear
Visibility: 10 miles
2014/04/21 01:53 KHGR 210153Z 13007KT 10SM CLR 12/00 A3030 RMK AO2 SLP271 T01170000
 
KFDK - Frederick - 34 miles NW
Updated: Sun, 04/20/2014 9:45 PM
Clear
Clear
 Wind from ESE
Wind: ESE 5 mph
Temperature: 50°F
Wind Chill: 48°F
Dew Point: 37°F
Humidity: 62%
Barometer: 30.35 inHg
Clouds: Clear
Visibility: 10 miles
2014/04/21 01:45 KFDK 210145Z AUTO 12004KT 10SM CLR 10/03 A3035 RMK AO2 LTG DSNT SE
KGAI - Gaithersburg - 26 miles SW
Updated: Sun, 04/20/2014 9:55 PM
Clear
Clear
 Wind from ESE
Wind: ESE 6 mph
Temperature: 48°F
Wind Chill: 45°F
Dew Point: 34°F
Humidity: 58%
Barometer: 30.35 inHg
Clouds: Clear
Visibility: 10 miles
2014/04/21 01:55 KGAI 210155Z AUTO 11005KT 10SM CLR 09/01 A3035 RMK AO1
 
KBWI - BWI Airport - 15 miles SE
Updated: Sun, 04/20/2014 9:54 PM
Clear
Clear
 Wind from ESE
Wind: ESE 6 mph
Temperature: 48°F
Wind Chill: 45°F
Dew Point: 34°F
Humidity: 58%
Barometer: 30.34 inHg
Clouds: Clear
Visibility: 10 miles
2014/04/21 01:54 KBWI 210154Z 11005KT 10SM CLR 09/01 A3034 RMK AO2 SLP274 T00940011
KNAK - Annapolis - 32 miles SSE
Updated: Sun, 04/20/2014 9:54 PM
Clear
Clear
 Wind from E
Wind: E 9 mph
Temperature: 50°F
Wind Chill: 46°F
Dew Point: 34°F
Humidity: 54%
Barometer: 30.34 inHg
Clouds: Clear
Visibility: 10 miles
2014/04/21 01:54 KNAK 210154Z AUTO 10008KT 10SM CLR 10/01 A3034 RMK AO2 SLP276 T01000011
 
KESN - Easton - 63 miles SE
Updated: Sun, 04/20/2014 8:50 PM
Clear
Clear
 Wind from E
Wind: E 3 mph
Temperature: 46°F
Dew Point: 32°F
Humidity: 57%
Barometer: 30.39 inHg
Clouds: Clear
Visibility: 10 miles
2014/04/21 00:50 KESN 210050Z 09003KT 10SM SKC 08/00 A3039
KSBY - Salisbury - 112 miles SE
Updated: Sun, 04/20/2014 9:54 PM
Clear
Clear
 Wind from NE
Wind: NE 6 mph
Temperature: 45°F
Wind Chill: 42°F
Dew Point: 34°F
Humidity: 66%
Barometer: 30.32 inHg
Clouds: Clear
Visibility: 10 miles
2014/04/21 01:54 KSBY 210154Z 05005KT 10SM CLR 07/01 A3032 RMK AO2 SLP269 T00670011